Decoded Metar for KY50 ( in _UNIDENTIFIED) (IATA:N/A) | Meteo·Mobile Aviation Weather
aviador You're here:

KY50 Decoded Metar

in _UNIDENTIFIED
Report Time2018-11-19 22:03:00
UTC Time2018-11-19 22:26:36
Flight Rules vfr VFR
Wind310° at 03 kt
W.Rank310° ranks 4
Current wind is below 310° avg. (8.8)
Visibility9999 m
Phenomena:N/A
Clouds:Broken 031 Hf
Expected CloudBase > 2,000 ft AGL from Temp-Dew spread
Ceiling3,100 ft
Temp-3°C (ISA -16)
Dew Point-8°C (69% RH)
AAT-7.0°C
QNH1018 hPa
Density Alt-1,260 ft
Elevation860 ft
Report Wrong Elevation
Raw Report
KY50 192203Z AUTO 31003KT 10SM BKN031 M03/M08 A3005 RMK AO2=

Extra information for KY50:More info

Metar Taf Metar & Taf Last 4 Metars F.Rules Stats Wind Profile Meteogram Temp Stats Metar ALERT Operation Metar Decoded Social comments